Time;durP1;ratioP1;P1;durP2;ratioP2;P2;SDS_P1;SDS_P2;PMS_P1;PMS_P2;Temp;Humidity;BMP_temperature;BMP_pressure;BME280_temperature;BME280_humidity;BME280_pressure;Samples;Min_cycle;Max_cycle;Signal;HPM_P1;HPM_P2
2023/08/23 00:00:47;;;;;;;10.30;8.80;;;;;;;18.93;100.00;97541.19;110410;1241;58901;-66
2023/08/23 00:03:35;;;;;;;10.10;8.80;;;;;;;18.93;100.00;97538.17;110469;1242;59292;-66
2023/08/23 00:06:06;;;;;;;10.10;8.90;;;;;;;18.93;100.00;97535.56;110399;1241;70515;-64
2023/08/23 00:08:40;;;;;;;10.00;8.90;;;;;;;18.93;100.00;97532.95;110506;1242;69048;-65
2023/08/23 00:11:11;;;;;;;10.00;8.70;;;;;;;18.94;100.00;97530.52;110447;1243;69443;-64
2023/08/23 00:13:41;;;;;;;;;;;;;;;18.93;100.00;97529.17;110399;1243;58934;-67
2023/08/23 00:16:11;;;;;;;10.60;9.20;;;;;;;18.92;100.00;97525.44;110423;1240;58985;-65
2023/08/23 00:18:41;;;;;;;10.90;9.00;;;;;;;18.90;100.00;97526.14;110264;1241;70514;-64
2023/08/23 00:21:11;;;;;;;12.00;10.50;;;;;;;18.88;100.00;97530.13;110401;1241;69054;-64
2023/08/23 00:23:42;;;;;;;11.30;10.10;;;;;;;18.85;100.00;97529.67;110410;1241;69110;-65
2023/08/23 00:26:11;;;;;;;11.40;9.30;;;;;;;18.83;100.00;97529.67;110466;1242;58863;-65
2023/08/23 00:28:42;;;;;;;10.50;9.40;;;;;;;18.83;100.00;97529.70;110401;1241;58872;-65
2023/08/23 00:31:12;;;;;;;12.10;10.30;;;;;;;18.81;100.00;97527.95;110482;1241;70570;-64
2023/08/23 00:33:42;;;;;;;10.70;9.60;;;;;;;18.77;100.00;97525.22;110489;1241;68378;-65
2023/08/23 00:36:13;;;;;;;11.60;9.90;;;;;;;18.70;100.00;97526.43;110424;1241;68533;-64
2023/08/23 00:38:44;;;;;;;11.70;10.40;;;;;;;18.64;100.00;97523.25;110493;1241;58873;-65
2023/08/23 00:41:20;;;;;;;10.80;9.60;;;;;;;18.59;100.00;97525.35;110426;1242;58934;-65
2023/08/23 00:43:51;;;;;;;10.40;9.30;;;;;;;18.54;100.00;97525.48;110449;1242;69788;-65
2023/08/23 00:46:23;;;;;;;10.20;9.20;;;;;;;18.48;100.00;97528.02;110430;1242;69089;-65
2023/08/23 00:48:54;;;;;;;11.50;9.90;;;;;;;18.42;100.00;97527.31;110184;1240;69947;-65
2023/08/23 00:51:24;;;;;;;12.40;9.90;;;;;;;18.36;100.00;97523.62;110349;1241;58960;-65
2023/08/23 00:53:57;;;;;;;10.50;9.40;;;;;;;18.31;100.00;97524.09;110479;1241;58900;-65
2023/08/23 00:56:30;;;;;;;10.80;9.50;;;;;;;18.28;100.00;97521.79;110251;1242;70448;-66
2023/08/23 00:59:04;;;;;;;9.80;8.80;;;;;;;18.27;100.00;97523.11;110465;1241;68580;-66
2023/08/23 01:01:36;;;;;;;10.40;9.30;;;;;;;18.26;100.00;97521.81;110233;1242;69423;-65
2023/08/23 01:04:07;;;;;;;11.40;9.30;;;;;;;18.24;100.00;97521.46;110207;1244;58951;-64
2023/08/23 01:07:09;;;;;;;11.80;10.20;;;;;;;18.24;100.00;97524.28;110466;1241;59328;-65
2023/08/23 01:09:50;;;;;;;14.00;11.90;;;;;;;18.25;100.00;97522.33;110487;1240;70909;-65
2023/08/23 01:12:31;;;;;;;12.30;11.00;;;;;;;18.25;100.00;97519.28;110463;1242;69237;-65
2023/08/23 01:15:05;;;;;;;11.10;9.90;;;;;;;18.27;100.00;97515.02;110170;1244;69258;-65
2023/08/23 01:17:43;;;;;;;10.80;9.70;;;;;;;18.28;100.00;97515.20;110365;1242;58892;-65
2023/08/23 01:20:16;;;;;;;12.00;9.90;;;;;;;18.28;100.00;97515.77;110497;1242;58846;-63
2023/08/23 01:22:58;;;;;;;10.80;8.90;;;;;;;18.28;100.00;97516.66;110426;1242;69983;-64
2023/08/23 01:25:29;;;;;;;11.10;9.60;;;;;;;18.28;100.00;97520.16;110373;1242;69197;-63
2023/08/23 01:28:01;;;;;;;11.00;9.70;;;;;;;18.28;100.00;97517.32;110486;1242;68322;-65
2023/08/23 01:30:35;;;;;;;11.40;9.70;;;;;;;18.26;100.00;97512.48;110343;1242;58900;-66
2023/08/23 01:33:19;;;;;;;11.50;9.30;;;;;;;18.24;100.00;97509.92;110331;1242;58872;-66
2023/08/23 01:36:07;;;;;;;12.60;10.40;;;;;;;18.19;100.00;97507.42;110353;1242;70614;-66
2023/08/23 01:38:42;;;;;;;11.00;9.80;;;;;;;18.14;100.00;97507.36;110315;1241;68340;-65
2023/08/23 01:41:16;;;;;;;10.50;9.40;;;;;;;18.09;100.00;97504.35;110338;1242;69250;-66
2023/08/23 01:43:48;;;;;;;11.30;10.00;;;;;;;18.05;100.00;97509.19;110205;1242;58919;-66
2023/08/23 01:46:19;;;;;;;10.90;9.00;;;;;;;18.00;100.00;97509.29;110359;1242;58871;-65
2023/08/23 01:48:50;;;;;;;10.50;9.20;;;;;;;17.97;100.00;97509.08;110227;1240;71203;-66
2023/08/23 01:51:23;;;;;;;10.10;9.00;;;;;;;17.92;100.00;97506.98;110441;1242;68925;-66
2023/08/23 01:53:54;;;;;;;11.20;9.40;;;;;;;17.88;100.00;97508.83;110367;1242;69270;-66
2023/08/23 01:56:26;;;;;;;11.70;9.70;;;;;;;17.85;100.00;97508.44;110210;1245;58898;-67
2023/08/23 01:58:59;;;;;;;11.20;9.70;;;;;;;17.85;100.00;97507.77;110209;1242;58928;-66
2023/08/23 02:01:35;;;;;;;10.70;8.90;;;;;;;17.83;100.00;97506.66;110259;1244;70571;-65
2023/08/23 02:04:06;;;;;;;10.60;9.40;;;;;;;17.82;100.00;97506.39;110434;1242;68549;-65
2023/08/23 02:06:38;;;;;;;11.20;9.90;;;;;;;17.80;100.00;97505.40;110474;1241;69183;-66
2023/08/23 02:09:13;;;;;;;9.70;8.30;;;;;;;17.76;100.00;97505.20;110428;1242;58899;-64
2023/08/23 02:11:46;;;;;;;9.70;8.70;;;;;;;17.73;100.00;97503.02;110216;1241;58869;-66
2023/08/23 02:14:23;;;;;;;;;;;;;;;17.70;100.00;97503.67;110373;1242;69650;-66
2023/08/23 02:16:56;;;;;;;10.30;8.30;;;;;;;17.66;100.00;97500.62;110203;1244;68861;-65
2023/08/23 02:19:26;;;;;;;10.20;8.50;;;;;;;17.63;100.00;97502.09;110222;1241;68666;-65
2023/08/23 02:21:58;;;;;;;12.90;10.30;;;;;;;17.62;100.00;97502.77;110476;1241;58866;-65
2023/08/23 02:24:29;;;;;;;10.00;8.60;;;;;;;17.63;100.00;97498.27;110500;1242;58872;-65
2023/08/23 02:27:02;;;;;;;10.40;8.90;;;;;;;17.63;100.00;97501.56;110186;1244;70985;-64
2023/08/23 02:29:35;;;;;;;11.50;8.90;;;;;;;17.62;100.00;97504.37;110374;1240;69136;-65
2023/08/23 02:32:09;;;;;;;10.30;9.20;;;;;;;17.63;100.00;97502.52;110361;1242;69346;-65
2023/08/23 02:34:43;;;;;;;12.00;10.10;;;;;;;17.62;100.00;97502.55;110453;1242;58935;-64
2023/08/23 02:37:18;;;;;;;12.20;10.20;;;;;;;17.64;100.00;97501.86;110462;1247;58905;-66
2023/08/23 02:39:48;;;;;;;10.80;9.60;;;;;;;17.67;100.00;97497.10;110387;1242;70637;-64
2023/08/23 02:42:19;;;;;;;11.50;10.30;;;;;;;17.70;100.00;97501.06;110518;1241;68432;-65
2023/08/23 02:44:50;;;;;;;11.00;9.70;;;;;;;17.70;100.00;97497.85;110476;1241;68874;-66
2023/08/23 02:47:22;;;;;;;11.70;9.10;;;;;;;17.68;100.00;97496.17;110472;1242;59322;-62
2023/08/23 02:49:53;;;;;;;11.30;9.40;;;;;;;17.65;100.00;97497.73;110402;1242;58956;-65
2023/08/23 02:52:23;;;;;;;11.10;10.00;;;;;;;17.61;100.00;97491.04;110385;1241;70833;-66
2023/08/23 02:54:53;;;;;;;11.40;10.10;;;;;;;17.56;100.00;97490.48;110263;1244;69204;-66
2023/08/23 02:57:23;;;;;;;11.20;9.70;;;;;;;17.53;100.00;97492.53;110254;1243;69192;-66
2023/08/23 02:59:55;;;;;;;9.70;8.30;;;;;;;17.50;100.00;97498.70;110530;1242;58932;-66
2023/08/23 03:02:26;;;;;;;9.90;8.50;;;;;;;17.48;100.00;97492.39;110373;1242;58823;-67
2023/08/23 03:04:59;;;;;;;9.70;8.40;;;;;;;17.44;100.00;97493.41;110436;1242;71118;-65
2023/08/23 03:07:30;;;;;;;10.00;8.20;;;;;;;17.43;100.00;97494.40;110413;1242;68235;-65
2023/08/23 03:10:08;;;;;;;10.40;9.30;;;;;;;17.39;100.00;97490.80;110443;1242;69102;-67
2023/08/23 03:12:43;;;;;;;10.40;8.80;;;;;;;17.37;100.00;97482.91;110533;1240;58827;-65
2023/08/23 03:15:15;;;;;;;11.90;9.10;;;;;;;17.34;100.00;97483.16;110523;1241;58941;-66
2023/08/23 03:17:46;;;;;;;10.70;9.30;;;;;;;17.34;100.00;97479.10;110354;1241;69917;-65
2023/08/23 03:20:18;;;;;;;9.60;8.30;;;;;;;17.36;100.00;97479.46;110520;1242;68515;-66
2023/08/23 03:22:51;;;;;;;9.30;8.30;;;;;;;17.36;100.00;97482.08;110177;1241;69394;-66
2023/08/23 03:25:22;;;;;;;9.60;8.60;;;;;;;17.38;100.00;97488.63;110321;1242;58906;-66
2023/08/23 03:27:54;;;;;;;9.70;8.20;;;;;;;17.38;100.00;97489.15;110361;1242;58883;-66
2023/08/23 03:30:25;;;;;;;10.00;8.50;;;;;;;17.40;100.00;97492.11;110447;1242;70602;-64
2023/08/23 03:32:56;;;;;;;11.10;9.50;;;;;;;17.42;100.00;97490.45;110208;1242;69332;-64
2023/08/23 03:35:29;;;;;;;10.40;9.10;;;;;;;17.47;100.00;97486.30;110190;1242;68442;-64
2023/08/23 03:38:02;;;;;;;12.50;10.60;;;;;;;17.50;100.00;97490.69;110433;1241;58907;-63
2023/08/23 03:40:40;;;;;;;11.40;10.20;;;;;;;17.52;100.00;97494.55;110432;1242;59302;-64
2023/08/23 03:43:10;;;;;;;10.70;9.60;;;;;;;17.54;100.00;97495.77;110249;1242;69797;-70
2023/08/23 03:45:48;;;;;;;10.90;8.80;;;;;;;17.56;100.00;97501.92;110271;1242;68419;-65
2023/08/23 03:48:20;;;;;;;11.40;8.90;;;;;;;17.58;100.00;97505.63;110229;1240;68326;-67
2023/08/23 03:50:51;;;;;;;11.50;9.50;;;;;;;17.62;100.00;97506.12;110424;1242;58827;-65
2023/08/23 03:53:23;;;;;;;13.80;10.80;;;;;;;17.70;100.00;97505.42;110509;1242;58876;-66
2023/08/23 03:55:58;;;;;;;11.80;10.60;;;;;;;17.78;100.00;97504.98;110483;1242;68717;-65
2023/08/23 03:58:32;;;;;;;12.60;11.30;;;;;;;17.85;100.00;97503.47;110380;1242;69212;-66
2023/08/23 04:01:04;;;;;;;12.70;10.20;;;;;;;17.87;100.00;97502.06;110535;1242;69149;-66
2023/08/23 04:03:35;;;;;;;11.20;9.20;;;;;;;17.82;100.00;97501.30;110160;1241;58927;-65
2023/08/23 04:06:06;;;;;;;9.90;8.80;;;;;;;17.81;100.00;97501.70;110551;1242;58853;-66
2023/08/23 04:08:37;;;;;;;9.70;8.40;;;;;;;17.83;100.00;97502.59;110224;1242;68735;-64
2023/08/23 04:11:08;;;;;;;11.00;8.90;;;;;;;17.90;100.00;97504.55;110360;1240;70152;-65
2023/08/23 04:13:39;;;;;;;10.50;8.60;;;;;;;18.04;100.00;97505.05;110354;1240;69287;-65
2023/08/23 04:16:12;;;;;;;9.90;8.90;;;;;;;18.23;100.00;97509.42;110440;1243;58941;-66
2023/08/23 04:18:41;;;;;;;10.60;8.60;;;;;;;18.48;100.00;97511.16;110231;1242;58905;-65
2023/08/23 04:21:11;;;;;;;9.70;8.70;;;;;;;18.71;100.00;97513.80;110507;1242;70605;-65
2023/08/23 04:23:41;;;;;;;10.20;8.60;;;;;;;18.92;100.00;97514.84;110492;1242;69817;-65
2023/08/23 04:26:12;;;;;;;10.90;8.50;;;;;;;19.10;100.00;97513.81;110210;1242;68522;-65
2023/08/23 04:28:42;;;;;;;9.20;8.00;;;;;;;19.28;100.00;97512.46;110467;1240;59394;-64
2023/08/23 04:31:11;;;;;;;;;;;;;;;19.40;100.00;97511.55;110493;1242;58818;-65
2023/08/23 04:33:49;;;;;;;10.50;8.70;;;;;;;19.51;100.00;97510.49;110334;1239;70906;-66
2023/08/23 04:36:19;;;;;;;10.00;9.00;;;;;;;19.60;100.00;97513.05;110347;1242;69455;-66
2023/08/23 04:38:49;;;;;;;10.20;9.20;;;;;;;19.70;100.00;97511.64;110331;1242;70276;-65
2023/08/23 04:41:19;;;;;;;10.30;9.10;;;;;;;19.78;100.00;97512.55;110365;1241;58950;-65
2023/08/23 04:43:48;;;;;;;9.30;8.30;;;;;;;19.93;100.00;97510.00;110491;1242;58883;-65
2023/08/23 04:46:17;;;;;;;;;;;;;;;20.10;100.00;97509.61;110492;1242;69642;-66
2023/08/23 04:48:48;;;;;;;9.90;8.80;;;;;;;20.29;100.00;97508.37;110199;1241;68504;-66
2023/08/23 04:51:18;;;;;;;9.90;8.60;;;;;;;20.51;100.00;97507.16;110188;1243;69242;-65
2023/08/23 04:53:48;;;;;;;11.60;8.70;;;;;;;20.64;100.00;97506.02;110394;1241;58889;-66
2023/08/23 04:56:19;;;;;;;11.40;10.20;;;;;;;20.81;100.00;97507.88;110190;1241;58956;-65
2023/08/23 04:58:48;;;;;;;8.80;7.90;;;;;;;21.01;100.00;97505.05;110452;1241;69847;-65
2023/08/23 05:01:19;;;;;;;8.80;7.90;;;;;;;21.22;99.12;97504.39;110364;1242;67972;-64
2023/08/23 05:03:48;;;;;;;9.60;8.60;;;;;;;21.40;97.85;97506.81;110290;1242;69385;-66
2023/08/23 05:06:18;;;;;;;11.10;9.50;;;;;;;21.41;96.85;97504.41;110227;1241;58901;-66
2023/08/23 05:08:48;;;;;;;10.30;9.10;;;;;;;21.58;96.37;97507.95;110191;1242;58864;-65
2023/08/23 05:11:21;;;;;;;9.80;8.80;;;;;;;21.77;96.96;97510.08;110086;1240;71153;-66
2023/08/23 05:13:51;;;;;;;9.80;8.80;;;;;;;21.82;95.47;97510.16;110463;1242;69239;-67
2023/08/23 05:16:21;;;;;;;10.20;9.00;;;;;;;22.04;93.86;97507.11;110189;1242;69138;-66
2023/08/23 05:18:51;;;;;;;9.60;8.70;;;;;;;22.28;92.30;97514.37;110219;1243;58896;-66
2023/08/23 05:21:22;;;;;;;10.10;9.10;;;;;;;22.53;91.36;97515.66;110229;1243;58862;-64
2023/08/23 05:23:52;;;;;;;10.10;9.10;;;;;;;22.64;89.90;97520.15;110429;1242;70587;-65
2023/08/23 05:26:21;;;;;;;11.10;10.00;;;;;;;22.82;88.64;97521.70;110314;1242;69066;-65
2023/08/23 05:28:51;;;;;;;11.90;10.50;;;;;;;23.06;90.76;97520.32;110164;1242;69530;-65
2023/08/23 05:31:20;;;;;;;13.60;11.30;;;;;;;23.25;90.42;97520.95;110186;1241;58938;-65
2023/08/23 05:33:50;;;;;;;12.30;10.70;;;;;;;23.39;88.03;97518.30;110457;1242;58891;-65
2023/08/23 05:36:21;;;;;;;10.40;9.40;;;;;;;23.61;88.33;97514.46;110315;1242;71148;-65
2023/08/23 05:38:50;;;;;;;17.50;15.70;;;;;;;23.99;88.90;97504.58;110373;1242;69795;-65
2023/08/23 05:41:20;;;;;;;13.10;11.20;;;;;;;24.24;87.46;97501.83;110399;1240;68535;-66
2023/08/23 05:43:50;;;;;;;11.10;9.90;;;;;;;24.57;83.94;97502.17;110316;1243;58913;-66
2023/08/23 05:46:20;;;;;;;9.60;8.60;;;;;;;24.63;79.35;97503.88;110206;1245;58837;-66
2023/08/23 05:48:51;;;;;;;10.00;9.00;;;;;;;24.74;79.19;97505.99;110448;1242;71203;-66
2023/08/23 05:51:20;;;;;;;9.00;8.20;;;;;;;24.92;79.22;97510.84;110295;1242;68623;-66
2023/08/23 05:53:50;;;;;;;9.20;8.10;;;;;;;25.12;77.05;97510.56;110145;1240;69099;-65
2023/08/23 05:56:19;;;;;;;;;;;;;;;25.31;75.30;97513.73;110512;1242;58888;-65
2023/08/23 05:58:48;;;;;;;9.70;8.80;;;;;;;25.49;73.74;97511.80;110500;1242;58882;-66
2023/08/23 06:01:18;;;;;;;9.40;7.50;;;;;;;25.84;77.16;97505.84;110472;1242;70396;-65
2023/08/23 06:03:49;;;;;;;;;;;;;;;26.29;78.98;97504.95;110507;1242;69419;-65
2023/08/23 06:06:18;;;;;;;9.00;8.10;;;;;;;26.50;71.00;97510.54;110327;1242;69239;-64
2023/08/23 06:08:47;;;;;;;9.00;8.10;;;;;;;26.56;70.86;97512.08;110411;1242;58919;-66
2023/08/23 06:11:18;;;;;;;9.00;8.20;;;;;;;26.29;67.87;97514.34;110449;1242;58868;-65
2023/08/23 06:13:50;;;;;;;8.90;8.00;;;;;;;26.41;68.34;97515.06;110377;1242;71173;-65
2023/08/23 06:16:19;;;;;;;9.10;8.20;;;;;;;26.44;67.02;97516.22;110421;1242;69640;-66
2023/08/23 06:18:49;;;;;;;8.20;7.40;;;;;;;26.50;65.69;97518.77;110415;1242;69169;-66
2023/08/23 06:21:19;;;;;;;8.60;7.20;;;;;;;27.03;67.54;97521.53;110332;1242;58930;-67
2023/08/23 06:23:47;;;;;;;;;;;;;;;27.55;67.26;97526.09;110399;1241;58872;-67
2023/08/23 06:26:16;;;;;;;8.90;8.10;;;;;;;27.74;63.72;97523.33;110381;1242;71108;-67
2023/08/23 06:28:45;;;;;;;;;;;;;;;27.89;63.40;97520.59;110420;1242;70046;-67
2023/08/23 06:31:19;;;;;;;8.70;7.90;;;;;;;27.91;62.84;97517.72;110189;1240;69730;-67
2023/08/23 06:33:48;;;;;;;8.40;7.60;;;;;;;28.34;63.58;97514.18;110404;1241;58862;-67
2023/08/23 06:36:17;;;;;;;7.90;7.10;;;;;;;28.67;63.21;97514.52;110346;1242;58869;-65
2023/08/23 06:38:47;;;;;;;8.90;7.70;;;;;;;28.83;60.97;97517.06;110333;1242;71155;-65
2023/08/23 06:41:16;;;;;;;7.80;7.10;;;;;;;28.68;58.93;97525.90;110514;1242;69637;-66
2023/08/23 06:43:49;;;;;;;8.90;8.00;;;;;;;28.48;58.92;97524.29;110446;1242;69761;-66
2023/08/23 06:46:19;;;;;;;8.80;7.90;;;;;;;28.61;57.91;97531.27;110195;1244;58897;-64
2023/08/23 06:48:48;;;;;;;8.00;7.20;;;;;;;28.91;57.53;97530.36;110338;1242;58943;-64
2023/08/23 06:51:17;;;;;;;8.20;7.40;;;;;;;29.21;57.09;97531.48;110388;1243;71102;-64
2023/08/23 06:53:47;;;;;;;8.00;7.30;;;;;;;29.45;56.67;97525.20;110373;1242;69844;-65
2023/08/23 06:56:17;;;;;;;8.20;7.40;;;;;;;29.27;55.00;97519.33;110489;1242;68267;-64
2023/08/23 06:58:46;;;;;;;8.80;7.90;;;;;;;29.43;55.59;97516.23;110529;1241;58937;-65
2023/08/23 07:01:16;;;;;;;9.00;8.10;;;;;;;29.66;55.92;97520.20;110505;1242;58918;-66
2023/08/23 07:03:45;;;;;;;8.80;7.90;;;;;;;29.91;55.38;97524.23;110216;1243;70276;-66
2023/08/23 07:06:15;;;;;;;8.20;7.50;;;;;;;29.96;53.88;97523.07;110015;1242;69294;-66
2023/08/23 07:08:44;;;;;;;8.00;7.20;;;;;;;30.04;52.51;97521.86;110497;1248;69885;-65
2023/08/23 07:11:13;;;;;;;8.80;7.90;;;;;;;30.35;52.87;97523.73;110331;1242;58896;-66
2023/08/23 07:13:42;;;;;;;8.90;8.00;;;;;;;30.40;52.05;97517.70;110459;1241;58900;-66
2023/08/23 07:16:11;;;;;;;;;;;;;;;30.80;52.99;97519.17;110489;1241;70957;-66
2023/08/23 07:18:40;;;;;;;9.90;9.00;;;;;;;31.32;52.13;97519.86;110510;1240;68638;-66
2023/08/23 07:21:09;;;;;;;10.70;9.60;;;;;;;31.24;49.89;97517.67;110441;1242;69116;-66
2023/08/23 07:23:38;;;;;;;10.30;9.30;;;;;;;31.08;50.52;97517.55;110435;1242;58900;-67
2023/08/23 07:26:10;;;;;;;9.30;8.40;;;;;;;31.45;49.27;97518.52;110411;1245;58930;-66
2023/08/23 07:28:38;;;;;;;8.40;7.60;;;;;;;31.10;49.75;97518.38;110190;1242;71183;-66
2023/08/23 07:31:07;;;;;;;9.70;8.80;;;;;;;31.06;49.92;97517.91;110257;1241;68515;-64
2023/08/23 07:33:36;;;;;;;;;;;;;;;30.68;49.95;97512.64;110164;1241;70014;-65
2023/08/23 07:36:05;;;;;;;7.80;7.00;;;;;;;31.21;50.22;97513.21;110151;1240;58934;-64
2023/08/23 07:38:34;;;;;;;8.30;7.50;;;;;;;31.52;49.38;97506.67;110240;1243;58893;-66
2023/08/23 07:41:03;;;;;;;7.70;6.90;;;;;;;31.54;49.16;97508.05;110233;1248;71621;-64
2023/08/23 07:43:32;;;;;;;8.90;8.00;;;;;;;31.46;48.98;97500.88;110208;1241;70029;-67
2023/08/23 07:46:03;;;;;;;7.70;7.00;;;;;;;31.16;48.31;97503.38;110242;1241;68550;-67
2023/08/23 07:48:32;;;;;;;7.80;7.10;;;;;;;31.09;49.37;97506.86;110205;1240;58894;-66
2023/08/23 07:51:01;;;;;;;7.70;7.00;;;;;;;31.69;49.40;97507.65;110223;1242;58823;-67
2023/08/23 07:53:30;;;;;;;7.00;6.30;;;;;;;32.26;49.31;97503.46;110285;1241;71139;-67
2023/08/23 07:55:59;;;;;;;7.10;6.50;;;;;;;32.42;46.64;97502.41;110212;1242;69816;-66
2023/08/23 07:58:29;;;;;;;8.10;7.40;;;;;;;32.22;48.03;97502.36;110271;1243;69063;-68
2023/08/23 08:00:59;;;;;;;7.40;6.70;;;;;;;32.15;48.20;97504.09;110290;1249;58948;-67
2023/08/23 08:03:28;;;;;;;7.60;6.90;;;;;;;32.46;48.25;97501.12;110215;1240;58947;-66
2023/08/23 08:05:58;;;;;;;7.50;6.70;;;;;;;32.82;46.52;97502.89;110184;1240;71170;-67
2023/08/23 08:08:31;;;;;;;7.80;7.10;;;;;;;33.02;45.86;97496.48;110250;1242;69751;-64
2023/08/23 08:11:00;;;;;;;8.30;7.60;;;;;;;33.28;44.14;97491.73;110220;1242;68446;-68
2023/08/23 08:13:29;;;;;;;7.80;7.10;;;;;;;33.26;42.68;97486.80;110181;1240;58938;-66
2023/08/23 08:16:05;;;;;;;7.50;6.90;;;;;;;33.26;43.22;97492.65;110235;1241;58889;-65
2023/08/23 08:18:34;;;;;;;5.80;5.30;;;;;;;33.80;44.01;97490.69;110188;1241;71155;-65
2023/08/23 08:21:04;;;;;;;7.30;6.60;;;;;;;34.36;43.89;97496.65;110181;1242;70159;-65
2023/08/23 08:23:34;;;;;;;8.40;7.60;;;;;;;34.69;41.38;97490.87;110209;1242;69285;-65
2023/08/23 08:26:05;;;;;;;7.40;6.80;;;;;;;34.60;40.39;97492.73;110179;1242;58954;-65
2023/08/23 08:28:35;;;;;;;8.30;7.60;;;;;;;34.50;39.64;97485.71;110160;1241;58930;-64
2023/08/23 08:31:04;;;;;;;7.40;6.70;;;;;;;34.40;39.72;97485.10;110114;1244;71141;-64
2023/08/23 08:33:33;;;;;;;7.60;6.90;;;;;;;34.43;39.88;97479.42;110227;1242;69271;-65
2023/08/23 08:36:04;;;;;;;7.20;6.50;;;;;;;34.08;40.01;97483.30;110177;1243;70400;-65
2023/08/23 08:38:33;;;;;;;7.30;6.70;;;;;;;34.51;39.82;97481.05;110183;1245;58986;-65
2023/08/23 08:41:03;;;;;;;6.00;5.50;;;;;;;35.14;39.05;97481.80;110173;1242;58932;-65
2023/08/23 08:43:32;;;;;;;7.00;6.40;;;;;;;35.57;38.30;97485.23;110171;1241;71167;-64
2023/08/23 08:46:05;;;;;;;7.40;6.70;;;;;;;35.14;37.44;97483.18;110274;1242;68533;-65
2023/08/23 08:48:34;;;;;;;7.20;6.50;;;;;;;35.42;37.07;97478.20;110215;1242;69313;-65
2023/08/23 08:51:07;;;;;;;7.10;6.40;;;;;;;35.21;36.82;97479.29;110201;1243;58940;-65
2023/08/23 08:53:37;;;;;;;7.30;6.60;;;;;;;34.82;37.40;97476.54;110224;1242;58880;-65
2023/08/23 08:56:08;;;;;;;7.90;7.20;;;;;;;35.57;37.21;97480.30;110234;1242;70615;-65
2023/08/23 08:58:37;;;;;;;7.30;6.50;;;;;;;35.72;36.75;97473.23;110236;1242;69832;-66
2023/08/23 09:01:07;;;;;;;7.70;6.90;;;;;;;35.62;35.88;97477.02;110235;1242;69065;-65
2023/08/23 09:03:36;;;;;;;8.40;7.60;;;;;;;35.41;36.60;97474.71;110264;1242;58943;-64
2023/08/23 09:06:06;;;;;;;8.10;7.40;;;;;;;36.02;36.48;97472.69;110250;1242;58860;-65
2023/08/23 09:08:35;;;;;;;7.30;6.60;;;;;;;36.18;36.03;97463.92;110247;1242;71311;-65
2023/08/23 09:11:04;;;;;;;7.20;6.50;;;;;;;36.93;36.08;97462.94;110190;1243;68583;-65
2023/08/23 09:13:33;;;;;;;6.70;6.10;;;;;;;37.22;34.63;97461.09;110240;1242;69621;-66
2023/08/23 09:16:03;;;;;;;7.70;6.70;;;;;;;37.10;33.92;97460.16;110196;1241;58875;-65
2023/08/23 09:18:33;;;;;;;6.80;6.20;;;;;;;36.90;33.58;97456.83;110248;1242;58862;-63
2023/08/23 09:21:02;;;;;;;7.00;6.30;;;;;;;36.86;34.51;97453.59;110241;1243;71162;-66
2023/08/23 09:23:34;;;;;;;8.00;7.30;;;;;;;36.66;34.10;97455.84;110195;1241;69463;-66
2023/08/23 09:26:07;;;;;;;6.90;6.20;;;;;;;36.41;33.77;97454.24;110223;1241;69677;-65
2023/08/23 09:28:38;;;;;;;6.50;6.00;;;;;;;35.55;34.72;97463.65;110295;1242;58963;-66
2023/08/23 09:31:10;;;;;;;7.50;6.70;;;;;;;35.96;34.20;97458.94;110244;1242;58892;-65
2023/08/23 09:33:39;;;;;;;7.00;6.20;;;;;;;36.81;34.31;97454.05;110279;1241;71206;-66
2023/08/23 09:36:09;;;;;;;7.40;6.60;;;;;;;37.07;33.45;97450.73;110207;1242;69603;-65
2023/08/23 09:38:39;;;;;;;7.20;6.40;;;;;;;37.78;32.60;97451.14;110245;1243;68525;-65
2023/08/23 09:41:08;;;;;;;6.40;5.70;;;;;;;37.89;32.36;97451.25;110231;1241;58878;-66
2023/08/23 09:43:38;;;;;;;7.90;7.20;;;;;;;38.34;32.19;97450.73;110246;1242;58898;-65
2023/08/23 09:46:11;;;;;;;7.70;7.00;;;;;;;38.32;31.80;97449.91;110254;1242;70528;-66
2023/08/23 09:48:41;;;;;;;6.70;6.10;;;;;;;37.81;32.03;97450.15;110225;1243;69880;-66
2023/08/23 09:51:12;;;;;;;6.60;6.10;;;;;;;38.09;32.28;97444.24;110251;1242;69501;-65
2023/08/23 09:53:43;;;;;;;6.90;6.10;;;;;;;38.69;31.74;97440.05;110249;1242;58893;-66
2023/08/23 09:56:14;;;;;;;8.90;7.10;;;;;;;39.00;31.11;97442.28;110246;1242;58850;-65
2023/08/23 09:58:44;;;;;;;8.20;7.40;;;;;;;39.15;30.77;97442.52;110235;1242;71157;-66
2023/08/23 10:01:15;;;;;;;8.60;7.80;;;;;;;38.86;31.18;97435.73;110237;1242;70116;-66
2023/08/23 10:03:47;;;;;;;7.70;7.00;;;;;;;38.91;31.33;97434.27;110218;1242;69714;-66
2023/08/23 10:06:16;;;;;;;6.50;5.90;;;;;;;38.71;30.87;97428.27;110207;1242;58945;-65
2023/08/23 10:08:45;;;;;;;6.50;5.80;;;;;;;39.22;31.92;97429.84;110248;1242;58884;-66
2023/08/23 10:11:18;;;;;;;6.20;5.70;;;;;;;39.82;31.66;97428.35;110217;1243;70574;-66
2023/08/23 10:13:47;;;;;;;6.80;5.70;;;;;;;40.27;31.51;97418.69;110233;1247;69314;-66
2023/08/23 10:16:18;;;;;;;7.20;6.60;;;;;;;40.09;31.35;97418.98;110251;1241;69224;-66
2023/08/23 10:18:49;;;;;;;6.90;6.30;;;;;;;39.96;31.32;97415.41;110209;1242;58995;-66
2023/08/23 10:21:18;;;;;;;6.90;6.30;;;;;;;40.12;31.70;97401.79;110264;1243;58895;-65
2023/08/23 10:23:48;;;;;;;6.40;5.80;;;;;;;40.38;31.13;97397.77;110247;1250;69873;-65
2023/08/23 10:26:21;;;;;;;6.80;5.30;;;;;;;40.61;31.00;97394.42;110206;1244;69193;-66
2023/08/23 10:28:52;;;;;;;5.70;5.10;;;;;;;41.16;31.14;97388.55;110198;1245;69968;-65
2023/08/23 10:31:25;;;;;;;6.20;5.60;;;;;;;41.71;29.95;97387.42;110212;1244;58954;-66
2023/08/23 10:33:58;;;;;;;6.70;6.10;;;;;;;41.11;28.50;97384.02;110252;1242;58874;-65
2023/08/23 10:36:30;;;;;;;6.50;5.90;;;;;;;41.02;28.36;97377.10;110316;1250;70688;-65
2023/08/23 10:38:59;;;;;;;7.10;6.50;;;;;;;40.25;29.42;97371.88;110194;1244;69802;-65
2023/08/23 10:41:29;;;;;;;7.20;6.60;;;;;;;40.20;28.57;97369.97;110211;1242;69809;-66
2023/08/23 10:43:59;;;;;;;5.80;5.30;;;;;;;40.60;28.75;97369.45;110260;1249;58941;-67
2023/08/23 10:46:30;;;;;;;6.00;5.40;;;;;;;41.09;28.46;97373.98;110237;1242;58893;-67
2023/08/23 10:49:01;;;;;;;6.00;5.40;;;;;;;41.20;28.28;97374.25;110253;1242;70805;-66
2023/08/23 10:51:29;;;;;;;6.20;5.60;;;;;;;41.28;27.19;97378.83;110212;1245;69183;-65
2023/08/23 10:53:59;;;;;;;6.50;5.90;;;;;;;41.16;28.43;97378.64;110203;1248;69754;-65
2023/08/23 10:56:28;;;;;;;5.50;5.00;;;;;;;41.43;26.98;97376.48;110246;1248;58936;-66
2023/08/23 10:58:59;;;;;;;5.20;4.80;;;;;;;41.44;27.14;97371.77;110240;1245;58875;-65
2023/08/23 11:01:28;;;;;;;5.40;5.00;;;;;;;41.64;27.66;97364.47;110291;1240;71648;-66
2023/08/23 11:03:59;;;;;;;5.60;5.10;;;;;;;41.69;27.13;97365.44;110186;1242;69317;-66
2023/08/23 11:06:28;;;;;;;4.80;4.40;;;;;;;42.07;26.65;97367.84;110196;1242;69276;-65
2023/08/23 11:08:57;;;;;;;5.00;4.50;;;;;;;41.98;26.36;97365.58;110214;1241;58947;-65
2023/08/23 11:11:30;;;;;;;4.90;4.50;;;;;;;41.77;26.67;97364.20;110249;1240;58874;-64
2023/08/23 11:13:58;;;;;;;6.00;5.40;;;;;;;41.74;27.25;97363.11;110211;1242;69737;-64
2023/08/23 11:16:27;;;;;;;6.00;5.40;;;;;;;41.91;27.68;97362.09;110220;1242;69794;-66
2023/08/23 11:18:56;;;;;;;6.00;5.50;;;;;;;41.43;27.95;97365.33;110195;1242;69855;-65
2023/08/23 11:21:26;;;;;;;5.80;5.30;;;;;;;41.23;27.91;97365.92;110205;1241;58886;-67
2023/08/23 11:23:56;;;;;;;5.30;4.80;;;;;;;40.82;27.31;97365.32;110189;1241;58925;-66
2023/08/23 11:26:25;;;;;;;5.30;4.80;;;;;;;40.16;27.97;97369.55;110228;1242;71155;-66
2023/08/23 11:28:54;;;;;;;5.40;4.90;;;;;;;39.86;28.98;97369.41;110306;1242;69790;-65
2023/08/23 11:31:23;;;;;;;5.50;5.00;;;;;;;39.40;28.67;97367.79;110286;1242;69842;-65
2023/08/23 11:33:53;;;;;;;5.50;5.00;;;;;;;38.46;29.74;97363.70;110155;1244;58889;-66
2023/08/23 11:36:22;;;;;;;6.20;5.60;;;;;;;37.83;31.31;97362.48;110279;1240;58951;-65